createdAt,value
2022-11-15T00:00:32.137Z,3.00
2022-11-15T00:03:21.842Z,3.35
2022-11-15T00:06:11.156Z,2.97
2022-11-15T00:09:02.616Z,3.00
2022-11-15T00:11:50.307Z,2.92
2022-11-15T00:14:37.831Z,2.70
2022-11-15T00:17:25.830Z,2.65
2022-11-15T00:20:13.807Z,2.95
2022-11-15T00:23:01.452Z,2.60
2022-11-15T00:25:57.566Z,2.92
2022-11-15T00:28:45.309Z,2.60
2022-11-15T00:31:32.985Z,2.63
2022-11-15T00:34:20.662Z,2.65
2022-11-15T00:37:09.399Z,2.70
2022-11-15T00:39:56.982Z,2.47
2022-11-15T00:42:46.032Z,3.10
2022-11-15T00:45:34.037Z,2.70
2022-11-15T00:48:21.654Z,2.80
2022-11-15T00:51:09.086Z,2.88
2022-11-15T00:53:56.815Z,2.60
2022-11-15T00:56:44.585Z,2.75
2022-11-15T00:59:33.509Z,3.00
2022-11-15T01:02:21.311Z,2.63
2022-11-15T01:05:10.196Z,2.60
2022-11-15T01:07:58.717Z,2.67
2022-11-15T01:10:46.533Z,2.83
2022-11-15T01:13:35.821Z,2.75
2022-11-15T01:16:24.898Z,3.00
2022-11-15T01:19:12.802Z,3.13
2022-11-15T01:22:00.514Z,3.13
2022-11-15T01:24:48.140Z,3.03
2022-11-15T01:27:35.777Z,3.15
2022-11-15T01:30:23.411Z,3.15
2022-11-15T01:33:12.424Z,3.20
2022-11-15T01:36:00.123Z,2.80
2022-11-15T01:38:47.801Z,3.33
2022-11-15T01:41:36.083Z,3.00
2022-11-15T01:44:44.977Z,3.00
2022-11-15T01:47:36.092Z,3.47
2022-11-15T01:50:29.279Z,3.08
2022-11-15T01:53:17.934Z,3.90
2022-11-15T01:56:08.938Z,3.40
2022-11-15T01:58:59.611Z,3.20
2022-11-15T02:01:47.593Z,3.33
2022-11-15T02:04:38.659Z,3.30
2022-11-15T02:07:27.920Z,3.53
2022-11-15T02:10:20.424Z,3.78
2022-11-15T02:13:08.231Z,3.40
2022-11-15T02:16:07.267Z,3.42
2022-11-15T02:19:02.126Z,3.20
2022-11-15T02:22:00.107Z,3.50
2022-11-15T02:25:05.547Z,3.58
2022-11-15T02:28:31.891Z,3.50
2022-11-15T02:31:29.770Z,3.38
2022-11-15T02:34:23.765Z,3.47
2022-11-15T02:37:19.431Z,3.40
2022-11-15T02:40:13.416Z,3.40
2022-11-15T02:43:28.003Z,3.90
2022-11-15T02:46:21.270Z,4.40
2022-11-15T02:49:10.911Z,4.18
2022-11-15T02:51:58.846Z,4.07
2022-11-15T02:54:56.411Z,4.05
2022-11-15T02:57:53.771Z,4.60
2022-11-15T03:00:47.951Z,3.88
2022-11-15T03:03:51.005Z,3.80
2022-11-15T03:06:47.086Z,4.20
2022-11-15T03:09:41.141Z,3.92
2022-11-15T03:12:35.440Z,4.10
2022-11-15T03:15:26.683Z,4.28
2022-11-15T03:18:21.897Z,4.47
2022-11-15T03:21:12.482Z,4.03
2022-11-15T03:24:07.850Z,4.43
2022-11-15T03:26:57.610Z,4.20
2022-11-15T03:29:50.357Z,4.13
2022-11-15T03:32:43.180Z,3.80
2022-11-15T03:35:34.607Z,3.83
2022-11-15T03:38:26.860Z,4.30
2022-11-15T03:41:22.541Z,4.50
2022-11-15T03:44:18.891Z,3.58
2022-11-15T03:47:12.294Z,4.00
2022-11-15T03:50:03.608Z,4.43
2022-11-15T03:52:52.382Z,4.13
2022-11-15T03:55:40.263Z,4.03
2022-11-15T03:58:29.506Z,3.67
2022-11-15T04:01:17.391Z,3.95
2022-11-15T04:04:04.927Z,4.00
2022-11-15T04:06:52.595Z,3.92
2022-11-15T04:10:00.377Z,4.07
2022-11-15T04:12:48.834Z,4.50
2022-11-15T04:15:38.405Z,4.13
2022-11-15T04:18:26.203Z,4.05
2022-11-15T04:21:31.260Z,3.70
2022-11-15T04:24:19.219Z,3.97
2022-11-15T04:27:06.752Z,4.07
2022-11-15T04:29:54.247Z,4.18
2022-11-15T04:32:43.318Z,4.10
2022-11-15T04:35:31.346Z,3.88
2022-11-15T04:38:18.543Z,3.78
2022-11-15T04:41:06.658Z,4.03
2022-11-15T04:43:54.927Z,4.10
2022-11-15T04:46:42.726Z,3.78
2022-11-15T04:49:31.886Z,4.07
2022-11-15T04:52:19.693Z,4.30
2022-11-15T04:55:08.415Z,4.25
2022-11-15T04:58:03.287Z,4.13
2022-11-15T05:00:51.117Z,4.05
2022-11-15T05:03:55.952Z,3.80
2022-11-15T05:06:45.355Z,3.75
2022-11-15T05:09:33.125Z,4.40
2022-11-15T05:12:20.594Z,3.90
2022-11-15T05:15:09.395Z,4.18
2022-11-15T05:18:01.306Z,4.00
2022-11-15T05:20:49.260Z,3.72
2022-11-15T05:23:38.857Z,3.55
2022-11-15T05:26:27.168Z,3.60
2022-11-15T05:29:14.909Z,3.15
2022-11-15T05:32:02.661Z,3.35
2022-11-15T05:34:51.134Z,2.75
2022-11-15T05:37:38.740Z,3.30
2022-11-15T05:40:28.643Z,3.55
2022-11-15T05:43:16.532Z,3.67
2022-11-15T05:46:06.719Z,2.70
2022-11-15T05:48:56.028Z,3.47
2022-11-15T05:51:47.358Z,3.13
2022-11-15T05:54:35.753Z,3.08
2022-11-15T05:57:26.253Z,3.60
2022-11-15T06:00:16.683Z,3.45
2022-11-15T06:03:04.175Z,3.42
2022-11-15T06:05:51.876Z,3.28
2022-11-15T06:08:39.449Z,3.50
2022-11-15T06:11:26.962Z,3.35
2022-11-15T06:14:15.999Z,3.95
2022-11-15T06:17:10.055Z,3.67
2022-11-15T06:19:58.998Z,3.97
2022-11-15T06:22:46.723Z,3.40
2022-11-15T06:25:34.495Z,3.78
2022-11-15T06:28:22.076Z,3.00
2022-11-15T06:31:13.250Z,3.50
2022-11-15T06:34:01.173Z,3.50
2022-11-15T06:36:49.051Z,3.75
2022-11-15T06:39:36.501Z,3.20
2022-11-15T06:42:24.079Z,3.05
2022-11-15T06:45:12.107Z,3.53
2022-11-15T06:48:01.526Z,3.28
2022-11-15T06:50:53.372Z,3.30
2022-11-15T06:53:41.079Z,3.25
2022-11-15T06:56:28.863Z,2.85
2022-11-15T06:59:16.982Z,3.50
2022-11-15T07:02:04.605Z,3.22
2022-11-15T07:04:53.711Z,3.28
2022-11-15T07:07:41.616Z,3.13
2022-11-15T07:10:29.465Z,3.20
2022-11-15T07:13:17.203Z,3.00
2022-11-15T07:16:05.817Z,3.30
2022-11-15T07:18:53.713Z,2.90
2022-11-15T07:21:42.971Z,3.25
2022-11-15T07:24:30.999Z,3.15
2022-11-15T07:27:18.630Z,3.22
2022-11-15T07:30:07.734Z,3.17
2022-11-15T07:32:56.458Z,3.10
2022-11-15T07:35:47.509Z,3.08
2022-11-15T07:38:42.479Z,3.20
2022-11-15T07:41:31.823Z,2.67
2022-11-15T07:44:19.909Z,2.88
2022-11-15T07:47:07.525Z,2.97
2022-11-15T07:49:55.105Z,3.00
2022-11-15T07:52:42.574Z,3.00
2022-11-15T07:55:31.839Z,3.10
2022-11-15T07:58:19.835Z,2.80
2022-11-15T08:01:08.096Z,2.97
2022-11-15T08:03:56.030Z,2.58
2022-11-15T08:06:43.843Z,2.95
2022-11-15T08:09:31.540Z,2.85
2022-11-15T08:12:21.183Z,2.67
2022-11-15T08:15:09.533Z,2.97
2022-11-15T08:17:58.571Z,3.42
2022-11-15T08:20:46.515Z,2.67
2022-11-15T08:23:34.268Z,2.92
2022-11-15T08:26:22.071Z,2.60
2022-11-15T08:29:11.049Z,2.78
2022-11-15T08:31:58.585Z,2.72
2022-11-15T08:34:46.551Z,2.63
2022-11-15T08:37:34.266Z,2.88
2022-11-15T08:40:22.141Z,2.90
2022-11-15T08:43:10.094Z,2.45
2022-11-15T08:46:00.270Z,2.50
2022-11-15T08:48:47.807Z,2.70
2022-11-15T08:51:35.549Z,2.60
2022-11-15T08:54:23.220Z,2.67
2022-11-15T08:57:11.273Z,2.78
2022-11-15T08:59:58.891Z,2.90
2022-11-15T09:02:48.009Z,2.70
2022-11-15T09:05:38.970Z,2.70
2022-11-15T09:11:34.750Z,2.22
2022-11-15T09:14:24.996Z,2.30
2022-11-15T09:17:12.637Z,2.40
2022-11-15T09:20:01.680Z,2.70
2022-11-15T09:22:49.404Z,2.58
2022-11-15T09:25:37.153Z,2.45
2022-11-15T09:28:24.912Z,2.35
2022-11-15T09:31:12.720Z,2.28
2022-11-15T09:34:00.740Z,2.40
2022-11-15T09:36:49.991Z,2.40
2022-11-15T09:39:37.878Z,2.47
2022-11-15T09:42:44.234Z,2.33
2022-11-15T09:45:37.908Z,2.20
2022-11-15T09:48:54.831Z,2.30
2022-11-15T09:51:48.735Z,2.72
2022-11-15T09:57:21.182Z,2.22
2022-11-15T10:00:30.945Z,2.67
2022-11-15T10:03:06.708Z,2.20
2022-11-15T10:05:41.121Z,2.50
2022-11-15T10:08:26.546Z,2.10
2022-11-15T10:11:30.486Z,2.30
2022-11-15T10:13:51.829Z,2.30
2022-11-15T10:16:49.751Z,2.20
2022-11-15T10:19:26.346Z,2.22
2022-11-15T10:22:06.288Z,2.10
2022-11-15T10:24:41.093Z,2.30
2022-11-15T10:27:14.442Z,2.30
2022-11-15T10:29:46.500Z,2.40
2022-11-15T10:32:16.975Z,2.28
2022-11-15T10:34:47.229Z,2.30
2022-11-15T10:37:17.011Z,2.30
2022-11-15T10:39:46.203Z,2.13
2022-11-15T10:42:27.760Z,2.13
2022-11-15T10:44:57.111Z,2.30
2022-11-15T10:47:28.926Z,2.30
2022-11-15T10:50:03.637Z,2.55
2022-11-15T10:52:34.108Z,2.47
2022-11-15T10:55:08.938Z,2.10
2022-11-15T10:57:41.664Z,2.40
2022-11-15T11:00:42.818Z,2.38
2022-11-15T11:06:11.486Z,2.15
2022-11-15T11:08:41.594Z,2.28
2022-11-15T11:11:11.360Z,2.20
2022-11-15T11:13:41.972Z,2.20
2022-11-15T11:16:39.148Z,2.20
2022-11-15T11:19:21.407Z,2.38
2022-11-15T11:21:58.400Z,2.00
2022-11-15T11:24:36.199Z,2.30
2022-11-15T11:27:22.897Z,1.95
2022-11-15T11:30:05.867Z,2.00
2022-11-15T11:32:58.251Z,2.22
2022-11-15T11:35:33.304Z,2.25
2022-11-15T11:38:24.390Z,2.35
2022-11-15T11:41:06.546Z,2.38
2022-11-15T11:43:44.327Z,2.15
2022-11-15T11:46:44.850Z,2.03
2022-11-15T11:49:21.135Z,2.17
2022-11-15T11:51:54.470Z,2.40
2022-11-15T11:54:28.896Z,2.45
2022-11-15T11:57:00.757Z,2.30
2022-11-15T11:59:39.702Z,2.15
2022-11-15T12:02:17.937Z,2.30
2022-11-15T12:04:53.401Z,2.60
2022-11-15T12:07:26.473Z,2.42
2022-11-15T12:10:00.992Z,2.22
2022-11-15T12:12:37.556Z,2.20
2022-11-15T12:15:14.928Z,2.42
2022-11-15T12:17:44.875Z,2.28
2022-11-15T12:20:21.130Z,2.40
2022-11-15T12:22:56.396Z,2.53
2022-11-15T12:25:31.965Z,2.05
2022-11-15T12:28:06.424Z,2.13
2022-11-15T12:30:47.055Z,2.00
2022-11-15T12:33:39.822Z,2.47
2022-11-15T12:36:13.574Z,2.30
2022-11-15T12:39:00.027Z,2.15
2022-11-15T12:41:30.665Z,2.30
2022-11-15T12:44:01.288Z,2.40
2022-11-15T12:47:24.510Z,2.03
2022-11-15T12:49:53.883Z,2.20
2022-11-15T12:52:24.572Z,2.22
2022-11-15T12:55:05.683Z,1.95
2022-11-15T12:57:45.591Z,2.20
2022-11-15T13:00:39.772Z,2.22
2022-11-15T13:03:29.399Z,2.00
2022-11-15T13:06:09.047Z,2.25
2022-11-15T13:08:49.600Z,2.30
2022-11-15T13:12:02.853Z,2.70
2022-11-15T13:14:50.942Z,2.08
2022-11-15T13:17:43.921Z,2.00
2022-11-15T13:20:34.091Z,2.40
2022-11-15T13:23:10.228Z,2.35
2022-11-15T13:26:11.718Z,2.47
2022-11-15T13:28:46.850Z,2.25
2022-11-15T13:31:25.707Z,2.30
2022-11-15T13:33:57.399Z,2.00
2022-11-15T13:36:29.925Z,2.22
2022-11-15T13:39:02.482Z,1.92
2022-11-15T13:41:33.804Z,1.95
2022-11-15T13:44:06.475Z,1.92
2022-11-15T13:46:36.341Z,2.45
2022-11-15T13:49:07.690Z,2.03
2022-11-15T13:51:41.783Z,1.90
2022-11-15T13:54:19.423Z,2.20
2022-11-15T13:56:50.901Z,2.20
2022-11-15T13:59:27.946Z,2.40
2022-11-15T14:01:59.088Z,1.95
2022-11-15T14:04:30.936Z,2.08
2022-11-15T14:07:02.149Z,2.17
2022-11-15T14:09:38.790Z,2.25
2022-11-15T14:12:30.320Z,2.20
2022-11-15T14:15:02.625Z,1.98
2022-11-15T14:17:45.612Z,2.00
2022-11-15T14:20:29.799Z,2.30
2022-11-15T14:23:00.093Z,2.17
2022-11-15T14:25:30.515Z,2.00
2022-11-15T14:28:34.751Z,1.90
2022-11-15T14:31:14.266Z,1.90
2022-11-15T14:33:44.092Z,2.08
2022-11-15T14:36:15.534Z,1.92
2022-11-15T14:38:45.715Z,2.13
2022-11-15T14:41:22.306Z,1.92
2022-11-15T14:43:51.978Z,2.25
2022-11-15T14:46:22.668Z,2.22
2022-11-15T14:48:51.888Z,1.92
2022-11-15T14:51:21.171Z,2.28
2022-11-15T14:53:50.815Z,2.10
2022-11-15T14:56:19.923Z,2.22
2022-11-15T14:58:49.028Z,1.80
2022-11-15T15:01:22.970Z,2.15
2022-11-15T15:03:53.148Z,2.00
2022-11-15T15:06:22.302Z,2.05
2022-11-15T15:08:52.097Z,2.22
2022-11-15T15:11:24.377Z,2.10
2022-11-15T15:13:53.863Z,2.20
2022-11-15T15:16:24.423Z,2.30
2022-11-15T15:18:53.776Z,2.15
2022-11-15T15:21:25.402Z,1.80
2022-11-15T15:23:56.248Z,2.00
2022-11-15T15:26:26.177Z,2.20
2022-11-15T15:28:55.420Z,2.58
2022-11-15T15:31:25.928Z,2.03
2022-11-15T15:33:55.128Z,2.38
2022-11-15T15:36:24.622Z,2.42
2022-11-15T15:38:53.811Z,2.28
2022-11-15T15:41:23.459Z,2.05
2022-11-15T15:43:52.711Z,2.25
2022-11-15T15:46:22.455Z,2.50
2022-11-15T15:48:53.086Z,2.22
2022-11-15T15:51:22.358Z,2.50
2022-11-15T15:53:52.602Z,2.55
2022-11-15T15:56:21.740Z,2.00
2022-11-15T15:58:50.919Z,1.98
2022-11-15T16:01:20.215Z,2.22
2022-11-15T16:03:49.555Z,1.88
2022-11-15T16:06:39.253Z,1.73
2022-11-15T16:09:15.147Z,1.70
2022-11-15T16:11:46.973Z,1.90
2022-11-15T16:14:16.174Z,1.80
2022-11-15T16:16:45.233Z,1.77
2022-11-15T16:19:14.534Z,1.63
2022-11-15T16:21:45.055Z,1.88
2022-11-15T16:24:14.356Z,1.80
2022-11-15T16:26:43.512Z,1.80
2022-11-15T16:29:12.952Z,1.77
2022-11-15T16:31:42.295Z,1.58
2022-11-15T16:34:11.714Z,1.70
2022-11-15T16:36:40.931Z,1.48
2022-11-15T16:39:15.965Z,1.65
2022-11-15T16:41:47.730Z,1.55
2022-11-15T16:44:16.958Z,1.50
2022-11-15T16:46:51.917Z,1.70
2022-11-15T16:49:23.413Z,1.45
2022-11-15T16:51:53.268Z,1.40
2022-11-15T16:54:23.871Z,1.70
2022-11-15T16:56:53.851Z,1.98
2022-11-15T16:59:23.010Z,1.60
2022-11-15T17:01:52.150Z,1.85
2022-11-15T17:04:22.863Z,1.90
2022-11-15T17:06:52.174Z,1.80
2022-11-15T17:09:24.942Z,1.92
2022-11-15T17:11:54.624Z,2.00
2022-11-15T17:14:24.288Z,1.95
2022-11-15T17:16:55.775Z,1.80
2022-11-15T17:19:24.934Z,1.73
2022-11-15T17:21:54.362Z,1.98
2022-11-15T17:24:25.105Z,2.00
2022-11-15T17:26:55.124Z,1.88
2022-11-15T17:29:24.266Z,1.70
2022-11-15T17:31:53.395Z,1.80
2022-11-15T17:34:22.694Z,1.60
2022-11-15T17:36:51.837Z,1.75
2022-11-15T17:39:21.085Z,1.90
2022-11-15T17:41:51.713Z,1.80
2022-11-15T17:44:21.085Z,1.73
2022-11-15T17:46:50.267Z,1.98
2022-11-15T17:49:19.395Z,1.77
2022-11-15T17:51:50.119Z,1.50
2022-11-15T17:54:19.550Z,1.75
2022-11-15T17:56:48.697Z,1.50
2022-11-15T17:59:21.550Z,1.65
2022-11-15T18:01:51.475Z,1.50
2022-11-15T18:04:21.241Z,2.20
2022-11-15T18:06:50.495Z,1.80
2022-11-15T18:09:20.319Z,1.70
2022-11-15T18:11:51.782Z,1.80
2022-11-15T18:14:22.537Z,1.92
2022-11-15T18:16:51.738Z,1.77
2022-11-15T18:19:21.015Z,1.60
2022-11-15T18:21:59.348Z,1.90
2022-11-15T18:24:30.379Z,1.83
2022-11-15T18:27:00.523Z,1.70
2022-11-15T18:29:31.246Z,1.70
2022-11-15T18:32:00.405Z,1.70
2022-11-15T18:34:32.610Z,1.50
2022-11-15T18:37:03.013Z,1.73
2022-11-15T18:39:32.653Z,1.67
2022-11-15T18:42:02.386Z,1.67
2022-11-15T18:44:33.342Z,1.77
2022-11-15T18:47:02.643Z,2.00
2022-11-15T18:49:32.030Z,1.80
2022-11-15T18:52:01.257Z,1.70
2022-11-15T18:54:31.686Z,2.10
2022-11-15T18:57:01.855Z,2.00
2022-11-15T18:59:32.658Z,1.90
2022-11-15T19:02:01.992Z,1.85
2022-11-15T19:04:31.265Z,2.08
2022-11-15T19:07:00.483Z,2.17
2022-11-15T19:09:32.941Z,2.20
2022-11-15T19:12:02.540Z,2.17
2022-11-15T19:14:33.249Z,2.00
2022-11-15T19:17:02.497Z,1.98
2022-11-15T19:19:33.059Z,1.90
2022-11-15T19:22:02.868Z,2.10
2022-11-15T19:24:32.027Z,2.10
2022-11-15T19:27:01.237Z,2.28
2022-11-15T19:29:30.529Z,2.00
2022-11-15T19:32:01.121Z,1.90
2022-11-15T19:34:30.587Z,2.00
2022-11-15T19:36:59.832Z,2.30
2022-11-15T19:39:28.947Z,2.20
2022-11-15T19:41:58.202Z,2.15
2022-11-15T19:44:27.573Z,2.17
2022-11-15T19:46:56.779Z,1.88
2022-11-15T19:49:27.590Z,2.38
2022-11-15T19:51:56.808Z,2.20
2022-11-15T19:54:26.125Z,3.28
2022-11-15T19:56:55.435Z,3.35
2022-11-15T19:59:24.659Z,3.15
2022-11-15T20:01:53.846Z,3.30
2022-11-15T20:04:23.189Z,3.38
2022-11-15T20:06:53.783Z,2.60
2022-11-15T20:09:23.005Z,2.45
2022-11-15T20:11:52.235Z,2.40
2022-11-15T20:14:21.564Z,2.60
2022-11-15T20:16:54.241Z,2.78
2022-11-15T20:19:23.909Z,2.78
2022-11-15T20:21:54.576Z,2.45
2022-11-15T20:24:23.908Z,3.13
2022-11-15T20:26:53.105Z,3.80
2022-11-15T20:29:22.329Z,2.85
2022-11-15T20:31:51.483Z,2.80
2022-11-15T20:34:21.420Z,2.40
2022-11-15T20:36:50.766Z,2.45
2022-11-15T20:39:21.331Z,2.70
2022-11-15T20:41:50.818Z,2.97
2022-11-15T20:44:20.228Z,2.65
2022-11-15T20:46:49.810Z,2.83
2022-11-15T20:49:19.065Z,2.85
2022-11-15T20:51:48.902Z,2.72
2022-11-15T20:54:18.264Z,2.50
2022-11-15T20:56:49.056Z,2.08
2022-11-15T20:59:18.506Z,2.47
2022-11-15T21:01:48.230Z,2.42
2022-11-15T21:04:17.815Z,2.10
2022-11-15T21:06:49.074Z,2.28
2022-11-15T21:09:35.860Z,2.45
2022-11-15T21:12:12.975Z,2.20
2022-11-15T21:14:44.180Z,2.03
2022-11-15T21:17:13.467Z,2.10
2022-11-15T21:19:42.892Z,2.20
2022-11-15T21:22:15.399Z,2.10
2022-11-15T21:24:44.827Z,1.95
2022-11-15T21:27:15.603Z,2.45
2022-11-15T21:29:45.860Z,2.38
2022-11-15T21:32:14.997Z,2.22
2022-11-15T21:34:44.186Z,2.60
2022-11-15T21:37:13.313Z,2.20
2022-11-15T21:39:42.535Z,2.08
2022-11-15T21:42:11.680Z,2.17
2022-11-15T21:44:42.350Z,2.35
2022-11-15T21:47:11.668Z,2.58
2022-11-15T21:49:40.742Z,2.13
2022-11-15T21:52:09.906Z,2.20
2022-11-15T21:54:41.198Z,2.45
2022-11-15T21:57:10.314Z,2.63
2022-11-15T22:00:00.554Z,2.25
2022-11-15T22:02:30.030Z,2.08
2022-11-15T22:04:59.209Z,2.30
2022-11-15T22:07:28.357Z,2.17
2022-11-15T22:09:58.950Z,2.10
2022-11-15T22:12:29.816Z,2.22
2022-11-15T22:14:59.162Z,2.20
2022-11-15T22:17:48.337Z,2.10
2022-11-15T22:23:08.474Z,2.20
2022-11-15T22:25:37.607Z,1.90
2022-11-15T22:28:06.982Z,2.17
2022-11-15T22:30:36.176Z,2.25
2022-11-15T22:33:05.463Z,2.17
2022-11-15T22:35:37.711Z,1.90
2022-11-15T22:38:07.239Z,2.20
2022-11-15T22:40:36.861Z,1.95
2022-11-15T22:43:06.920Z,2.08
2022-11-15T22:45:36.235Z,1.88
2022-11-15T22:48:05.475Z,2.10
2022-11-15T22:50:34.730Z,2.10
2022-11-15T22:53:05.345Z,1.92
2022-11-15T22:55:34.643Z,1.88
2022-11-15T22:58:03.787Z,2.22
2022-11-15T23:00:33.032Z,2.05
2022-11-15T23:03:02.379Z,1.70
2022-11-15T23:05:31.632Z,2.03
2022-11-15T23:08:00.788Z,1.90
2022-11-15T23:10:48.922Z,2.00
2022-11-15T23:13:18.286Z,1.63
2022-11-15T23:16:06.269Z,2.03
2022-11-15T23:18:36.740Z,1.80
2022-11-15T23:21:12.978Z,1.80
2022-11-15T23:23:41.314Z,1.70
2022-11-15T23:26:12.140Z,1.60
2022-11-15T23:28:41.315Z,1.38
2022-11-15T23:31:29.423Z,1.65
2022-11-15T23:33:58.616Z,1.60
2022-11-15T23:36:28.780Z,1.60
2022-11-15T23:38:58.102Z,1.70
2022-11-15T23:41:28.708Z,1.45
2022-11-15T23:43:57.962Z,1.50
2022-11-15T23:46:27.326Z,1.70
2022-11-15T23:48:56.706Z,1.30
2022-11-15T23:51:26.338Z,1.67
2022-11-15T23:53:55.939Z,1.65
2022-11-15T23:56:25.372Z,1.38
2022-11-15T23:58:56.103Z,1.30
